»·PEaware :: N1947L NONE-KSAC

N1947L :: NONE-KSAC

FLIGHT INFORMATION

Flight Status: Arrived
Operator: Privately registered:
United States
More flights under this callsign
Pilot: Kyal V. (18498)
Aircraft: CESSNA R182 TURBO SKYLANE
(C82R)
More flights by this aircraft type
Origin: NONE
Destination: KSAC Sacramento Executive
United States
More flights between these airports :: More routes between these airports
Route: +
File this flight plan on PilotEdge
Remarks: VOR 2
Altitude:
(Current/Filed)
0ft
Speed:
(Current/Filed)
0kts
Departed: 18-Jun-18 11:21 AM
Arrived: 18-Jun-18 12:26 PM
Distance/Time
Traveled:
Not Available
Distance/Time
To Go:
Arrived

Flight Plot

Page will automatically refresh every two minutes.

Flight plan parsing failed; only flown route is shown


Map Options




Map Legend


Flown Route
Filed Route
Departure Airport
Arrival Airport
Navaid (VOR, NDB)
Fix

Horizontal Profiles

Position Reports

Time Latitude Longitude Heading Altitude Ground
Speed
18-Jun-18 11:20 38.468368 -121.774600 125 1492ft 103kts
18-Jun-18 11:21 38.460194 -121.740972 94 1483ft 103kts
18-Jun-18 11:22 38.459139 -121.703512 96 1414ft 106kts
18-Jun-18 11:23 38.454661 -121.665351 98 1411ft 108kts
18-Jun-18 11:24 38.450790 -121.625782 96 1414ft 116kts
18-Jun-18 11:25 38.446853 -121.584693 97 1411ft 117kts
18-Jun-18 11:26 38.442597 -121.543515 113 1408ft 117kts
18-Jun-18 11:27 38.415293 -121.542379 210 1414ft 114kts
18-Jun-18 11:28 38.388714 -121.563996 234 1408ft 113kts
18-Jun-18 11:29 38.402741 -121.586822 26 1402ft 101kts
18-Jun-18 11:30 38.425071 -121.567237 35 1409ft 96kts
18-Jun-18 11:31 38.446782 -121.548953 33 1399ft 87kts
18-Jun-18 11:32 38.468431 -121.531249 33 944ft 95kts
18-Jun-18 11:33 38.490540 -121.513265 33 511ft 89kts
18-Jun-18 11:34 38.509142 -121.497415 31 340ft 83kts
18-Jun-18 11:35 38.530517 -121.507160 311 1339ft 85kts
18-Jun-18 11:36 38.530466 -121.531422 197 1701ft 82kts
18-Jun-18 11:37 38.508631 -121.535541 186 2180ft 81kts
18-Jun-18 11:38 38.486527 -121.542317 188 2977ft 95kts
18-Jun-18 11:39 38.454570 -121.548333 189 2914ft 123kts
18-Jun-18 11:40 38.425343 -121.537370 105 2912ft 123kts
18-Jun-18 11:41 38.437031 -121.497657 58 2911ft 124kts
18-Jun-18 11:42 38.453690 -121.459482 73 2919ft 123kts
18-Jun-18 11:43 38.462938 -121.417195 73 2910ft 123kts
18-Jun-18 11:44 38.480638 -121.382593 86 2922ft 123kts
18-Jun-18 11:45 38.499085 -121.351284 356 2589ft 136kts
18-Jun-18 11:46 38.535290 -121.366455 325 2107ft 132kts
18-Jun-18 11:47 38.564305 -121.383345 349 1992ft 90kts
18-Jun-18 11:48 38.589055 -121.388838 352 1371ft 90kts
18-Jun-18 11:49 38.614374 -121.393120 351 742ft 91kts
18-Jun-18 11:50 38.638741 -121.397952 348 440ft 86kts
18-Jun-18 11:51 38.658390 -121.400658 0 78ft 61kts
18-Jun-18 11:52 38.678844 -121.403943 357 1075ft 79kts
18-Jun-18 11:53 38.701330 -121.404538 357 2102ft 80kts
18-Jun-18 11:54 38.729042 -121.417573 324 2120ft 125kts
18-Jun-18 11:55 38.757503 -121.443561 324 2110ft 125kts
18-Jun-18 11:56 38.786031 -121.469610 324 2111ft 125kts
18-Jun-18 11:57 38.815458 -121.493672 349 2113ft 126kts
18-Jun-18 11:58 38.840638 -121.473316 82 2122ft 126kts
18-Jun-18 11:59 38.844100 -121.428061 84 2110ft 127kts
18-Jun-18 12:00 38.847468 -121.382961 84 2111ft 127kts
18-Jun-18 12:01 38.842024 -121.341058 147 2112ft 126kts
18-Jun-18 12:02 38.816696 -121.362503 254 2125ft 133kts
18-Jun-18 12:03 38.805633 -121.395043 204 2108ft 88kts
18-Jun-18 12:04 38.780122 -121.400799 176 1815ft 100kts
18-Jun-18 12:05 38.755458 -121.400231 180 1399ft 80kts
18-Jun-18 12:06 38.731432 -121.400402 181 1108ft 93kts
18-Jun-18 12:07 38.705723 -121.400886 178 572ft 90kts
18-Jun-18 12:08 38.685017 -121.400638 178 188ft 90kts
18-Jun-18 12:09 38.665309 -121.401213 186 407ft 89kts
18-Jun-18 12:10 38.641374 -121.402901 183 1466ft 93kts
18-Jun-18 12:11 38.611812 -121.405211 184 2097ft 85kts
18-Jun-18 12:12 38.584437 -121.425356 211 2531ft 122kts
18-Jun-18 12:13 38.555092 -121.449139 221 2512ft 124kts
18-Jun-18 12:14 38.534024 -121.474377 218 2511ft 125kts
18-Jun-18 12:15 38.504979 -121.498967 212 2510ft 125kts
18-Jun-18 12:16 38.476638 -121.523252 214 2496ft 115kts
18-Jun-18 12:17 38.450965 -121.545335 214 2513ft 111kts
18-Jun-18 12:18 38.422171 -121.556724 179 2498ft 113kts
18-Jun-18 12:19 38.389547 -121.561536 222 2013ft 118kts
18-Jun-18 12:20 38.399521 -121.587410 16 1455ft 108kts
18-Jun-18 12:21 38.424745 -121.567847 36 1494ft 107kts
18-Jun-18 12:22 38.448179 -121.547471 33 1408ft 95kts
18-Jun-18 12:23 38.470259 -121.530550 33 759ft 89kts
18-Jun-18 12:24 38.491059 -121.512668 33 449ft 91kts
18-Jun-18 12:25 38.507306 -121.498985 31 27ft 50kts
18-Jun-18 12:26 38.511306 -121.496555 268 27ft 0kts
18-Jun-18 12:32 38.511306 -121.496559 268 27ft 0kts
18-Jun-18 12:33 38.511306 -121.496560 268 27ft 0kts
18-Jun-18 12:34 38.511764 -121.498149 235 27ft 0kts
18-Jun-18 12:35 38.511955 -121.499263 274 27ft 0kts

Navigation Log

Ident Type
Flight plan parsing failed, navigation log unavailable